Pelly Crossing, Canada
Current Conditions -  °F | °C
As of 6:00 AM on Wednesday 22 Oct 2014 (Local Time) from CYMA Reporting Station
Overcast Overcast  
Wind Chill: 24°   Ceiling: 10000
Heat Index: 32°   Visibility: 20mi
Dew Point: 25°   Wind: 9mph
Humidity: 75%   Direction: 20°NNE
Pressure: 29.39"   Gusts: NA
Location:  62.83°N, 136.58°W
Report Text: CYMA 221300Z 02008KT 340V050 20SM OVC100 00/M04 A2939 RMK AS8 SLP977
Loading
Personal Weather Stations






























Interactive Weather Map
Tropical Storm Tracking
New forecast layout! Learn more

10-Day Weather Forecast

Advertisements
Track Severe Weather on mobile